x

Pensacola - 115nm Ese Of Pensacola, Fl (42039) Wave Buoy

9:50am - Mon 21st Apr 2014 All times are CDT. -5 hours from GMT.

  • Sig Wave height 2.0ft
  • Peak Period 5s
  • Average Period 4s
  • Wind
    9mph, 11mph gusts
  • Sea Temp 68°f
  • Air Temp 67°f
  • Sea Pressure 1021.3mb
  • Pensacola - 115nm Ese Of Pensacola, Fl
  • Pensacola - 115nm Ese Of Pensacola, Fl

More Historic Weather Station data

Upgrade to MSW Pro to gain access to the past 30 days of data for over 8000 Wavebouys and Weather Stations around the globe.

Join Pro

Comparision Forecast

View Surf forecast
   
Mon 04/21 9:50am 2ft 5s 4s 9 11 mph 1021.3mb 68f 67f
8:50am 2ft 5s 4s 9 11 mph 1021mb 67f 66f
7:50am 2ft 5s 4s 11 13 mph 1020.8mb 67f 66f
6:50am 2ft 4s 4s 13 16 mph 1020.3mb 67f 66f
5:50am 2.5ft 4s 4s 11 13 mph 1019.9mb 67f 65f
4:50am 2ft 4s 4s 11 13 mph 1019.6mb 67f 64f
3:50am 2.5ft 4s 4s 11 13 mph 1019.2mb 67f 64f
2:50am 2.5ft 4s 4s 13 16 mph 1019.4mb 67f 64f
1:50am 2.5ft 4s 3s 13 18 mph 1019.8mb 67f 63f
12:50am 2ft 5s 4s 13 18 mph 1020.3mb 67f 62f
Sun 04/20 11:50pm 2ft 4s 4s 13 16 mph 1020.9mb 67f 63f
10:50pm 2ft 4s 4s 11 16 mph 1020.9mb 67f 63f
9:50pm 2ft 4s 3s 13 16 mph 1020.8mb 68f 63f
8:50pm 2.5ft 4s 4s 13 16 mph 1020.7mb 68f 63f
7:50pm 2.5ft 4s 4s 13 16 mph 1020.3mb 68f 63f
6:50pm 2.5ft 4s 3s 13 16 mph 1019.9mb 69f 63f
5:50pm 2.5ft 4s 4s 13 18 mph 1019.7mb 69f 62f
4:50pm 2.5ft 4s 4s 13 16 mph 1020mb 69f 62f
3:50pm 2.5ft 4s 4s 13 16 mph 1020.2mb 68f 62f
2:50pm 2.5ft 4s 4s 11 16 mph 1020.5mb 68f 62f
1:50pm 2.5ft 5s 4s 11 16 mph 1020.9mb 67f 62f
12:50pm 3.5ft 5s 4s 13 18 mph 1021mb 68f 62f
11:50am 3ft 5s 4s 16 18 mph 1021.1mb 68f 62f
10:50am 3ft 5s 4s 11 13 mph 1021.3mb 68f 62f
9:50am 3ft 5s 4s 11 16 mph 1021.1mb 68f 63f
8:50am 3ft 5s 4s 7 11 mph 1020.7mb 67f 63f
7:50am 3ft 5s 4s 9 11 mph 1020.3mb 67f 63f
6:50am 3.5ft 5s 4s 13 16 mph 1019.8mb 67f 63f
5:50am 3.5ft 5s 4s 13 18 mph 1019.1mb 67f 63f
4:50am 4ft 5s 4s 13 18 mph 1018.6mb 67f 63f
3:50am 4ft 6s 4s 16 18 mph 1018.5mb 67f 64f
2:50am 4ft 6s 4s 18 22 mph 1018.2mb 67f 64f
1:50am 4ft 5s 4s 16 18 mph 1018.2mb 67f 65f
12:50am 4.5ft 6s 4s 16 18 mph 1018.2mb 67f 65f
Sat 04/19 11:50pm 4.5ft 5s 4s 20 22 mph 1018.3mb 68f 66f
10:50pm 3.5ft 5s 4s 20 25 mph 1018.7mb 68f 66f
9:50pm 3.5ft 5s 4s 18 20 mph 1019.1mb 68f 67f
8:50pm 3.5ft 6s 4s 18 20 mph 1018.6mb 68f 67f
7:50pm 4ft 5s 4s 16 18 mph 1018.1mb 68f 67f
6:50pm 4.5ft 6s 5s 16 18 mph 1017.5mb 68f 66f
5:50pm 5ft 6s 5s 18 22 mph 1017.1mb 69f 65f
4:50pm 5.5ft 6s 5s 20 22 mph 1016.6mb 68f 65f
3:50pm 6ft 6s 4s 22 27 mph 1016.3mb 68f 65f
2:50pm 6ft 6s 5s 22 27 mph 1016.6mb 68f 64f
1:50pm 6.5ft 6s 5s 25 29 mph 1016.6mb 68f 63f
12:50pm 6ft 6s 5s 22 27 mph 1016.4mb 68f 62f
11:50am 6.5ft 6s 5s 22 27 mph 1016.6mb 68f 62f
10:50am 6.5ft 6s 5s 25 29 mph 1016.7mb 67f 62f
9:50am 6ft 6s 5s 27 29 mph 1016.6mb 67f 62f
8:50am 5.5ft 6s 5s 25 29 mph 1016.9mb 67f 63f
7:50am 6ft 7s 5s 18 20 mph 1016.8mb 68f 62f
6:50am 6.5ft 7s 5s 20 25 mph 1016mb 68f 62f
5:50am 6.5ft 6s 5s 20 25 mph 1015.6mb 68f 62f
4:50am 5.5ft 6s 5s 22 27 mph 1015mb 67f 62f
3:50am 6ft 7s 5s 20 27 mph 1014.5mb 67f 62f
2:50am 6ft 7s 5s 22 27 mph 1015mb 67f 62f
1:50am 6ft 7s 5s 20 25 mph 1015mb 68f 62f
12:50am 6ft 7s 5s 22 29 mph 1015.1mb 68f 63f
Fri 04/18 11:50pm 6.5ft 7s 5s 22 25 mph 1014.7mb 68f 62f
10:50pm 8ft 7s 5s 22 27 mph 1014.9mb 68f 63f
9:50pm 8ft 8s 5s 25 29 mph 1014.4mb 68f 62f
8:50pm 8ft 8s 5s 25 29 mph 1013.9mb 69f 63f
7:50pm 7.5ft 7s 5s 22 27 mph 1012.7mb 69f 64f
6:50pm 6ft 8s 5s 25 29 mph 1011.5mb 70f 64f
5:50pm 5ft 6s 5s 22 27 mph 1011.1mb 70f 65f
4:50pm 6ft 7s 5s 9 11 mph 1011mb 69f 70f
3:50pm 6ft 6s 5s 9 11 mph 1011.2mb 68f 70f
2:50pm 6.5ft 7s 5s 16 18 mph 1012mb 68f 70f
1:50pm 6.5ft 7s 5s 18 22 mph 1012.1mb 68f 70f
12:50pm 6.5ft 7s 5s 20 25 mph 1012.8mb 69f 71f
11:50am 7ft 7s 6s 16 18 mph 1013.6mb 69f 71f
10:50am 7ft 7s 6s 18 22 mph 1013.9mb 69f 71f
8:50am 7ft 8s 6s 16 20 mph 1013.9mb 70f 70f
7:50am 8ft 7s 6s 25 31 mph 1013.6mb 70f 69f
6:50am 8.5ft 7s 6s 27 31 mph 1013.4mb 69f 69f
5:50am 7.5ft 7s 5s 25 29 mph 1014.4mb 69f 70f
4:50am 8ft 7s 5s 22 27 mph 1014.6mb 69f 68f
3:50am 7ft 6s 5s 22 27 mph 1015.2mb 69f 68f
2:50am 7ft 7s 5s 22 27 mph 1016.1mb 68f 68f
1:50am 7.5ft 7s 5s 20 27 mph 1017.1mb 68f 67f
12:50am 8.5ft 7s 5s 25 29 mph 1017.7mb 68f 68f
Thu 04/17 11:50pm 8.5ft 7s 6s 27 31 mph 1018.2mb 68f 69f
10:50pm 9ft 7s 5s 27 34 mph 1018.2mb 68f 69f
9:50pm 9ft 8s 6s 29 36 mph 1018.7mb 68f 68f
8:50pm 10ft 8s 6s 29 34 mph 1018.3mb 68f 68f
7:50pm 10ft 8s 6s 31 36 mph 1018mb 68f 67f
6:50pm 9ft 7s 6s 29 34 mph 1018.3mb 68f 67f
5:50pm 9ft 7s 6s 27 31 mph 1018.9mb 68f 67f
4:50pm 8.5ft 7s 6s 25 29 mph 1019.1mb 68f 67f
3:50pm 8ft 8s 5s 27 31 mph 1019.1mb 68f 67f